sensor_id;sensor_type;location;lat;lon;timestamp;temperature;humidity
38209;DHT22;24016;52.102;11.584;2024-02-28T00:02:24;3.10;99.90
38209;DHT22;24016;52.102;11.584;2024-02-28T00:04:49;3.10;99.90
38209;DHT22;24016;52.102;11.584;2024-02-28T00:07:15;3.10;99.90
38209;DHT22;24016;52.102;11.584;2024-02-28T00:09:40;3.10;99.90
38209;DHT22;24016;52.102;11.584;2024-02-28T00:12:06;3.10;99.90
38209;DHT22;24016;52.102;11.584;2024-02-28T00:14:32;3.10;99.90
38209;DHT22;24016;52.102;11.584;2024-02-28T00:16:57;3.10;99.90
38209;DHT22;24016;52.102;11.584;2024-02-28T00:19:23;3.00;99.90
38209;DHT22;24016;52.102;11.584;2024-02-28T00:21:50;3.00;99.90
38209;DHT22;24016;52.102;11.584;2024-02-28T00:24:16;3.00;99.90
38209;DHT22;24016;52.102;11.584;2024-02-28T00:26:42;3.00;99.90
38209;DHT22;24016;52.102;11.584;2024-02-28T00:29:11;3.00;99.90
38209;DHT22;24016;52.102;11.584;2024-02-28T00:31:37;2.90;99.90
38209;DHT22;24016;52.102;11.584;2024-02-28T00:34:02;2.90;99.90
38209;DHT22;24016;52.102;11.584;2024-02-28T00:36:28;2.90;99.90
38209;DHT22;24016;52.102;11.584;2024-02-28T00:38:56;2.90;99.90
38209;DHT22;24016;52.102;11.584;2024-02-28T00:41:22;2.90;99.90
38209;DHT22;24016;52.102;11.584;2024-02-28T00:43:47;2.90;99.90
38209;DHT22;24016;52.102;11.584;2024-02-28T00:46:13;2.90;99.90
38209;DHT22;24016;52.102;11.584;2024-02-28T00:48:39;2.90;99.90
38209;DHT22;24016;52.102;11.584;2024-02-28T00:51:05;2.90;99.90
38209;DHT22;24016;52.102;11.584;2024-02-28T00:53:30;2.90;99.90
38209;DHT22;24016;52.102;11.584;2024-02-28T00:55:56;2.80;99.90
38209;DHT22;24016;52.102;11.584;2024-02-28T00:58:22;2.80;99.90
38209;DHT22;24016;52.102;11.584;2024-02-28T01:00:50;2.80;99.90
38209;DHT22;24016;52.102;11.584;2024-02-28T01:03:16;2.80;99.90
38209;DHT22;24016;52.102;11.584;2024-02-28T01:05:43;2.80;99.90
38209;DHT22;24016;52.102;11.584;2024-02-28T01:08:09;2.80;99.90
38209;DHT22;24016;52.102;11.584;2024-02-28T01:10:34;2.80;99.90
38209;DHT22;24016;52.102;11.584;2024-02-28T01:13:00;2.80;99.90
38209;DHT22;24016;52.102;11.584;2024-02-28T01:15:26;2.80;99.90
38209;DHT22;24016;52.102;11.584;2024-02-28T01:17:51;2.80;99.90
38209;DHT22;24016;52.102;11.584;2024-02-28T01:20:17;2.80;99.90
38209;DHT22;24016;52.102;11.584;2024-02-28T01:22:43;2.80;99.90
38209;DHT22;24016;52.102;11.584;2024-02-28T01:25:08;2.70;99.90
38209;DHT22;24016;52.102;11.584;2024-02-28T01:27:34;2.70;99.90
38209;DHT22;24016;52.102;11.584;2024-02-28T01:30:00;2.70;99.90
38209;DHT22;24016;52.102;11.584;2024-02-28T01:32:26;2.70;99.90
38209;DHT22;24016;52.102;11.584;2024-02-28T01:34:51;2.70;99.90
38209;DHT22;24016;52.102;11.584;2024-02-28T01:37:17;2.70;99.90
38209;DHT22;24016;52.102;11.584;2024-02-28T01:39:42;2.70;99.90
38209;DHT22;24016;52.102;11.584;2024-02-28T01:42:08;2.70;99.90
38209;DHT22;24016;52.102;11.584;2024-02-28T01:44:41;2.70;99.90
38209;DHT22;24016;52.102;11.584;2024-02-28T01:47:08;2.70;99.90
38209;DHT22;24016;52.102;11.584;2024-02-28T01:49:34;2.70;99.90
38209;DHT22;24016;52.102;11.584;2024-02-28T01:52:00;2.70;99.90
38209;DHT22;24016;52.102;11.584;2024-02-28T01:54:27;2.70;99.90
38209;DHT22;24016;52.102;11.584;2024-02-28T01:56:53;2.70;99.90
38209;DHT22;24016;52.102;11.584;2024-02-28T01:59:19;2.70;99.90
38209;DHT22;24016;52.102;11.584;2024-02-28T02:01:45;2.70;99.90
38209;DHT22;24016;52.102;11.584;2024-02-28T02:04:11;2.70;99.90
38209;DHT22;24016;52.102;11.584;2024-02-28T02:06:38;2.60;99.90
38209;DHT22;24016;52.102;11.584;2024-02-28T02:09:07;2.60;99.90
38209;DHT22;24016;52.102;11.584;2024-02-28T02:11:32;2.60;99.90
38209;DHT22;24016;52.102;11.584;2024-02-28T02:13:59;2.60;99.90
38209;DHT22;24016;52.102;11.584;2024-02-28T02:16:24;2.60;99.90
38209;DHT22;24016;52.102;11.584;2024-02-28T02:18:53;2.50;99.90
38209;DHT22;24016;52.102;11.584;2024-02-28T02:21:22;2.50;99.90
38209;DHT22;24016;52.102;11.584;2024-02-28T02:23:48;2.50;99.90
38209;DHT22;24016;52.102;11.584;2024-02-28T02:26:13;2.50;99.90
38209;DHT22;24016;52.102;11.584;2024-02-28T02:28:39;2.50;99.90
38209;DHT22;24016;52.102;11.584;2024-02-28T02:33:40;2.50;99.90
38209;DHT22;24016;52.102;11.584;2024-02-28T02:36:07;2.50;99.90
38209;DHT22;24016;52.102;11.584;2024-02-28T02:38:32;2.50;99.90
38209;DHT22;24016;52.102;11.584;2024-02-28T02:40:58;2.50;99.90
38209;DHT22;24016;52.102;11.584;2024-02-28T02:43:23;2.50;99.90
38209;DHT22;24016;52.102;11.584;2024-02-28T02:45:49;2.50;99.90
38209;DHT22;24016;52.102;11.584;2024-02-28T02:48:15;2.50;99.90
38209;DHT22;24016;52.102;11.584;2024-02-28T02:50:40;2.50;99.90
38209;DHT22;24016;52.102;11.584;2024-02-28T02:53:10;2.50;99.90
38209;DHT22;24016;52.102;11.584;2024-02-28T02:55:36;2.50;99.90
38209;DHT22;24016;52.102;11.584;2024-02-28T02:58:02;2.50;99.90
38209;DHT22;24016;52.102;11.584;2024-02-28T03:00:28;2.50;99.90
38209;DHT22;24016;52.102;11.584;2024-02-28T03:02:59;2.50;99.90
38209;DHT22;24016;52.102;11.584;2024-02-28T03:05:24;2.50;99.90
38209;DHT22;24016;52.102;11.584;2024-02-28T03:07:53;2.50;99.90
38209;DHT22;24016;52.102;11.584;2024-02-28T03:10:18;2.50;99.90
38209;DHT22;24016;52.102;11.584;2024-02-28T03:12:47;2.40;99.90
38209;DHT22;24016;52.102;11.584;2024-02-28T03:15:13;2.40;99.90
38209;DHT22;24016;52.102;11.584;2024-02-28T03:17:38;2.50;99.90
38209;DHT22;24016;52.102;11.584;2024-02-28T03:20:04;2.40;99.90
38209;DHT22;24016;52.102;11.584;2024-02-28T03:22:32;2.40;99.90
38209;DHT22;24016;52.102;11.584;2024-02-28T03:24:58;2.50;99.90
38209;DHT22;24016;52.102;11.584;2024-02-28T03:27:24;2.40;99.90
38209;DHT22;24016;52.102;11.584;2024-02-28T03:29:50;2.40;99.90
38209;DHT22;24016;52.102;11.584;2024-02-28T03:32:17;2.50;99.90
38209;DHT22;24016;52.102;11.584;2024-02-28T03:34:43;2.40;99.90
38209;DHT22;24016;52.102;11.584;2024-02-28T03:37:09;2.40;99.90
38209;DHT22;24016;52.102;11.584;2024-02-28T03:39:35;2.40;99.90
38209;DHT22;24016;52.102;11.584;2024-02-28T03:42:00;2.40;99.90
38209;DHT22;24016;52.102;11.584;2024-02-28T03:44:26;2.40;99.90
38209;DHT22;24016;52.102;11.584;2024-02-28T03:46:52;2.40;99.90
38209;DHT22;24016;52.102;11.584;2024-02-28T03:49:18;2.40;99.90
38209;DHT22;24016;52.102;11.584;2024-02-28T03:51:44;2.40;99.90
38209;DHT22;24016;52.102;11.584;2024-02-28T03:54:10;2.40;99.90
38209;DHT22;24016;52.102;11.584;2024-02-28T03:56:36;2.40;99.90
38209;DHT22;24016;52.102;11.584;2024-02-28T03:59:03;2.40;99.90
38209;DHT22;24016;52.102;11.584;2024-02-28T04:01:31;2.40;99.90
38209;DHT22;24016;52.102;11.584;2024-02-28T04:03:57;2.40;99.90
38209;DHT22;24016;52.102;11.584;2024-02-28T04:06:24;2.40;99.90
38209;DHT22;24016;52.102;11.584;2024-02-28T04:08:50;2.40;99.90
38209;DHT22;24016;52.102;11.584;2024-02-28T04:11:16;2.40;99.90
38209;DHT22;24016;52.102;11.584;2024-02-28T04:13:42;2.40;99.90
38209;DHT22;24016;52.102;11.584;2024-02-28T04:16:10;2.40;99.90
38209;DHT22;24016;52.102;11.584;2024-02-28T04:18:36;2.30;99.90
38209;DHT22;24016;52.102;11.584;2024-02-28T04:21:01;2.30;99.90
38209;DHT22;24016;52.102;11.584;2024-02-28T04:23:27;2.30;99.90
38209;DHT22;24016;52.102;11.584;2024-02-28T04:25:53;2.30;99.90
38209;DHT22;24016;52.102;11.584;2024-02-28T04:28:19;2.30;99.90
38209;DHT22;24016;52.102;11.584;2024-02-28T04:30:45;2.30;99.90
38209;DHT22;24016;52.102;11.584;2024-02-28T04:33:11;2.30;99.90
38209;DHT22;24016;52.102;11.584;2024-02-28T04:35:37;2.30;99.90
38209;DHT22;24016;52.102;11.584;2024-02-28T04:38:02;2.30;99.90
38209;DHT22;24016;52.102;11.584;2024-02-28T04:40:28;2.30;99.90
38209;DHT22;24016;52.102;11.584;2024-02-28T04:42:54;2.30;99.90
38209;DHT22;24016;52.102;11.584;2024-02-28T04:45:24;2.30;99.90
38209;DHT22;24016;52.102;11.584;2024-02-28T04:47:50;2.30;99.90
38209;DHT22;24016;52.102;11.584;2024-02-28T04:50:19;2.30;99.90
38209;DHT22;24016;52.102;11.584;2024-02-28T04:52:45;2.30;99.90
38209;DHT22;24016;52.102;11.584;2024-02-28T04:55:11;2.40;99.90
38209;DHT22;24016;52.102;11.584;2024-02-28T04:57:38;2.40;99.90
38209;DHT22;24016;52.102;11.584;2024-02-28T05:00:04;2.30;99.90
38209;DHT22;24016;52.102;11.584;2024-02-28T05:02:30;2.30;99.90
38209;DHT22;24016;52.102;11.584;2024-02-28T05:04:57;2.30;99.90
38209;DHT22;24016;52.102;11.584;2024-02-28T05:07:24;2.30;99.90
38209;DHT22;24016;52.102;11.584;2024-02-28T05:09:50;2.30;99.90
38209;DHT22;24016;52.102;11.584;2024-02-28T05:12:15;2.30;99.90
38209;DHT22;24016;52.102;11.584;2024-02-28T05:14:44;2.30;99.90
38209;DHT22;24016;52.102;11.584;2024-02-28T05:17:11;2.20;99.90
38209;DHT22;24016;52.102;11.584;2024-02-28T05:19:37;2.20;99.90
38209;DHT22;24016;52.102;11.584;2024-02-28T05:22:04;2.10;99.90
38209;DHT22;24016;52.102;11.584;2024-02-28T05:24:30;2.10;99.90
38209;DHT22;24016;52.102;11.584;2024-02-28T05:26:55;2.00;99.90
38209;DHT22;24016;52.102;11.584;2024-02-28T05:29:21;1.90;99.90
38209;DHT22;24016;52.102;11.584;2024-02-28T05:31:46;1.90;99.90
38209;DHT22;24016;52.102;11.584;2024-02-28T05:34:13;1.80;99.90
38209;DHT22;24016;52.102;11.584;2024-02-28T05:36:40;1.80;99.90
38209;DHT22;24016;52.102;11.584;2024-02-28T05:39:07;1.70;99.90
38209;DHT22;24016;52.102;11.584;2024-02-28T05:41:34;1.70;99.90
38209;DHT22;24016;52.102;11.584;2024-02-28T05:44:01;1.70;99.90
38209;DHT22;24016;52.102;11.584;2024-02-28T05:46:27;1.80;99.90
38209;DHT22;24016;52.102;11.584;2024-02-28T05:48:54;1.80;99.90
38209;DHT22;24016;52.102;11.584;2024-02-28T05:51:21;1.80;99.90
38209;DHT22;24016;52.102;11.584;2024-02-28T05:53:47;1.80;99.90
38209;DHT22;24016;52.102;11.584;2024-02-28T05:56:13;1.90;99.90
38209;DHT22;24016;52.102;11.584;2024-02-28T05:58:43;1.90;99.90
38209;DHT22;24016;52.102;11.584;2024-02-28T06:01:10;1.90;99.90
38209;DHT22;24016;52.102;11.584;2024-02-28T06:03:39;1.90;99.90
38209;DHT22;24016;52.102;11.584;2024-02-28T06:06:04;1.90;99.90
38209;DHT22;24016;52.102;11.584;2024-02-28T06:08:37;1.90;99.90
38209;DHT22;24016;52.102;11.584;2024-02-28T06:11:02;1.90;99.90
38209;DHT22;24016;52.102;11.584;2024-02-28T06:13:29;1.90;99.90
38209;DHT22;24016;52.102;11.584;2024-02-28T06:15:55;1.90;99.90
38209;DHT22;24016;52.102;11.584;2024-02-28T06:18:22;2.00;99.90
38209;DHT22;24016;52.102;11.584;2024-02-28T06:20:59;2.00;99.90
38209;DHT22;24016;52.102;11.584;2024-02-28T06:23:26;2.00;99.90
38209;DHT22;24016;52.102;11.584;2024-02-28T06:25:51;2.10;99.90
38209;DHT22;24016;52.102;11.584;2024-02-28T06:28:17;2.10;99.90
38209;DHT22;24016;52.102;11.584;2024-02-28T06:30:43;2.10;99.90
38209;DHT22;24016;52.102;11.584;2024-02-28T06:33:14;2.10;99.90
38209;DHT22;24016;52.102;11.584;2024-02-28T06:35:41;2.20;99.90
38209;DHT22;24016;52.102;11.584;2024-02-28T06:38:08;2.20;99.90
38209;DHT22;24016;52.102;11.584;2024-02-28T06:40:34;2.30;99.90
38209;DHT22;24016;52.102;11.584;2024-02-28T06:43:01;2.30;99.90
38209;DHT22;24016;52.102;11.584;2024-02-28T06:45:27;2.30;99.90
38209;DHT22;24016;52.102;11.584;2024-02-28T06:47:56;2.30;99.90
38209;DHT22;24016;52.102;11.584;2024-02-28T06:50:25;2.40;99.90
38209;DHT22;24016;52.102;11.584;2024-02-28T06:52:50;2.50;99.90
38209;DHT22;24016;52.102;11.584;2024-02-28T06:55:19;2.50;99.90
38209;DHT22;24016;52.102;11.584;2024-02-28T06:57:44;2.50;99.90
38209;DHT22;24016;52.102;11.584;2024-02-28T07:00:11;2.50;99.90
38209;DHT22;24016;52.102;11.584;2024-02-28T07:02:39;2.60;99.90
38209;DHT22;24016;52.102;11.584;2024-02-28T07:05:05;2.60;99.90
38209;DHT22;24016;52.102;11.584;2024-02-28T07:07:34;2.60;99.90
38209;DHT22;24016;52.102;11.584;2024-02-28T07:10:02;2.50;99.90
38209;DHT22;24016;52.102;11.584;2024-02-28T07:12:28;2.50;99.90
38209;DHT22;24016;52.102;11.584;2024-02-28T07:14:53;2.40;99.90
38209;DHT22;24016;52.102;11.584;2024-02-28T07:17:20;2.40;99.90
38209;DHT22;24016;52.102;11.584;2024-02-28T07:19:46;2.40;99.90
38209;DHT22;24016;52.102;11.584;2024-02-28T07:22:11;2.30;99.90
38209;DHT22;24016;52.102;11.584;2024-02-28T07:24:37;2.30;99.90
38209;DHT22;24016;52.102;11.584;2024-02-28T07:27:03;2.30;99.90
38209;DHT22;24016;52.102;11.584;2024-02-28T07:29:28;2.30;99.90
38209;DHT22;24016;52.102;11.584;2024-02-28T07:31:54;2.40;99.90
38209;DHT22;24016;52.102;11.584;2024-02-28T07:34:20;2.30;99.90
38209;DHT22;24016;52.102;11.584;2024-02-28T07:36:45;2.30;99.90
38209;DHT22;24016;52.102;11.584;2024-02-28T07:39:10;2.30;99.90
38209;DHT22;24016;52.102;11.584;2024-02-28T07:41:38;2.40;99.90
38209;DHT22;24016;52.102;11.584;2024-02-28T07:44:04;2.40;99.90
38209;DHT22;24016;52.102;11.584;2024-02-28T07:46:29;2.40;99.90
38209;DHT22;24016;52.102;11.584;2024-02-28T07:48:55;2.40;99.90
38209;DHT22;24016;52.102;11.584;2024-02-28T07:51:20;2.50;99.90
38209;DHT22;24016;52.102;11.584;2024-02-28T07:53:47;2.60;99.90
38209;DHT22;24016;52.102;11.584;2024-02-28T07:56:16;2.60;99.90
38209;DHT22;24016;52.102;11.584;2024-02-28T07:58:43;2.80;99.90
38209;DHT22;24016;52.102;11.584;2024-02-28T08:01:09;2.90;99.90
38209;DHT22;24016;52.102;11.584;2024-02-28T08:03:35;3.00;99.90
38209;DHT22;24016;52.102;11.584;2024-02-28T08:06:00;3.20;99.90
38209;DHT22;24016;52.102;11.584;2024-02-28T08:08:26;3.30;99.90
38209;DHT22;24016;52.102;11.584;2024-02-28T08:10:51;3.30;99.90
38209;DHT22;24016;52.102;11.584;2024-02-28T08:13:18;3.30;99.90
38209;DHT22;24016;52.102;11.584;2024-02-28T08:15:44;3.40;99.90
38209;DHT22;24016;52.102;11.584;2024-02-28T08:18:10;3.40;99.90
38209;DHT22;24016;52.102;11.584;2024-02-28T08:20:38;3.40;99.90
38209;DHT22;24016;52.102;11.584;2024-02-28T08:23:05;3.40;99.90
38209;DHT22;24016;52.102;11.584;2024-02-28T08:25:30;3.50;99.90
38209;DHT22;24016;52.102;11.584;2024-02-28T08:27:56;3.60;99.90
38209;DHT22;24016;52.102;11.584;2024-02-28T08:30:22;3.70;99.90
38209;DHT22;24016;52.102;11.584;2024-02-28T08:32:47;3.70;99.90
38209;DHT22;24016;52.102;11.584;2024-02-28T08:35:13;3.80;99.90
38209;DHT22;24016;52.102;11.584;2024-02-28T08:37:39;4.10;99.90
38209;DHT22;24016;52.102;11.584;2024-02-28T08:40:06;4.70;99.90
38209;DHT22;24016;52.102;11.584;2024-02-28T08:42:32;5.30;99.90
38209;DHT22;24016;52.102;11.584;2024-02-28T08:44:57;5.90;99.90
38209;DHT22;24016;52.102;11.584;2024-02-28T08:47:25;6.10;99.90
38209;DHT22;24016;52.102;11.584;2024-02-28T08:49:54;6.30;99.90
38209;DHT22;24016;52.102;11.584;2024-02-28T08:52:20;6.50;99.90
38209;DHT22;24016;52.102;11.584;2024-02-28T08:54:46;6.40;99.90
38209;DHT22;24016;52.102;11.584;2024-02-28T08:57:12;6.30;99.90
38209;DHT22;24016;52.102;11.584;2024-02-28T08:59:38;6.40;99.90
38209;DHT22;24016;52.102;11.584;2024-02-28T09:02:06;6.80;99.90
38209;DHT22;24016;52.102;11.584;2024-02-28T09:04:33;7.10;99.90
38209;DHT22;24016;52.102;11.584;2024-02-28T09:06:58;7.20;99.90
38209;DHT22;24016;52.102;11.584;2024-02-28T09:09:24;7.30;99.90
38209;DHT22;24016;52.102;11.584;2024-02-28T09:11:50;7.40;99.90
38209;DHT22;24016;52.102;11.584;2024-02-28T09:14:15;7.50;99.90
38209;DHT22;24016;52.102;11.584;2024-02-28T09:16:41;7.60;99.90
38209;DHT22;24016;52.102;11.584;2024-02-28T09:19:06;7.40;99.90
38209;DHT22;24016;52.102;11.584;2024-02-28T09:21:32;7.20;99.90
38209;DHT22;24016;52.102;11.584;2024-02-28T09:23:57;6.70;99.90
38209;DHT22;24016;52.102;11.584;2024-02-28T09:26:23;6.30;99.90
38209;DHT22;24016;52.102;11.584;2024-02-28T09:28:48;5.90;99.90
38209;DHT22;24016;52.102;11.584;2024-02-28T09:31:14;5.80;99.90
38209;DHT22;24016;52.102;11.584;2024-02-28T09:33:41;5.50;99.90
38209;DHT22;24016;52.102;11.584;2024-02-28T09:36:06;5.30;99.90
38209;DHT22;24016;52.102;11.584;2024-02-28T09:38:32;5.30;99.90
38209;DHT22;24016;52.102;11.584;2024-02-28T09:40:58;5.10;99.90
38209;DHT22;24016;52.102;11.584;2024-02-28T09:43:31;5.00;99.90
38209;DHT22;24016;52.102;11.584;2024-02-28T09:46:04;5.10;99.90
38209;DHT22;24016;52.102;11.584;2024-02-28T09:48:31;5.30;99.90
38209;DHT22;24016;52.102;11.584;2024-02-28T09:50:57;5.50;99.90
38209;DHT22;24016;52.102;11.584;2024-02-28T09:53:23;6.20;99.90
38209;DHT22;24016;52.102;11.584;2024-02-28T09:55:50;7.50;99.90
38209;DHT22;24016;52.102;11.584;2024-02-28T09:58:17;8.60;99.90
38209;DHT22;24016;52.102;11.584;2024-02-28T10:00:43;8.70;99.90
38209;DHT22;24016;52.102;11.584;2024-02-28T10:03:13;8.60;99.90
38209;DHT22;24016;52.102;11.584;2024-02-28T10:05:39;8.10;99.90
38209;DHT22;24016;52.102;11.584;2024-02-28T10:08:05;7.70;99.90
38209;DHT22;24016;52.102;11.584;2024-02-28T10:10:31;7.70;99.90
38209;DHT22;24016;52.102;11.584;2024-02-28T10:12:57;8.10;99.90
38209;DHT22;24016;52.102;11.584;2024-02-28T10:15:26;8.40;99.90
38209;DHT22;24016;52.102;11.584;2024-02-28T10:17:51;8.80;99.90
38209;DHT22;24016;52.102;11.584;2024-02-28T10:20:17;9.30;99.90
38209;DHT22;24016;52.102;11.584;2024-02-28T10:22:43;10.00;99.90
38209;DHT22;24016;52.102;11.584;2024-02-28T10:25:08;9.90;99.90
38209;DHT22;24016;52.102;11.584;2024-02-28T10:27:34;9.70;99.90
38209;DHT22;24016;52.102;11.584;2024-02-28T10:30:00;10.00;99.90
38209;DHT22;24016;52.102;11.584;2024-02-28T10:32:33;10.40;99.90
38209;DHT22;24016;52.102;11.584;2024-02-28T10:35:05;11.10;99.90
38209;DHT22;24016;52.102;11.584;2024-02-28T10:37:32;12.00;99.90
38209;DHT22;24016;52.102;11.584;2024-02-28T10:39:58;12.10;99.90
38209;DHT22;24016;52.102;11.584;2024-02-28T10:42:25;11.60;99.90
38209;DHT22;24016;52.102;11.584;2024-02-28T10:44:52;11.20;99.90
38209;DHT22;24016;52.102;11.584;2024-02-28T10:47:19;11.30;99.90
38209;DHT22;24016;52.102;11.584;2024-02-28T10:49:45;11.30;99.90
38209;DHT22;24016;52.102;11.584;2024-02-28T10:52:14;11.20;99.90
38209;DHT22;24016;52.102;11.584;2024-02-28T10:54:42;11.40;99.90
38209;DHT22;24016;52.102;11.584;2024-02-28T10:57:08;11.60;99.90
38209;DHT22;24016;52.102;11.584;2024-02-28T10:59:35;11.70;99.90
38209;DHT22;24016;52.102;11.584;2024-02-28T11:02:02;12.00;99.90
38209;DHT22;24016;52.102;11.584;2024-02-28T11:04:28;12.10;99.90
38209;DHT22;24016;52.102;11.584;2024-02-28T11:06:55;12.30;99.90
38209;DHT22;24016;52.102;11.584;2024-02-28T11:09:25;12.10;99.90
38209;DHT22;24016;52.102;11.584;2024-02-28T11:11:54;12.10;99.90
38209;DHT22;24016;52.102;11.584;2024-02-28T11:14:21;11.70;99.90
38209;DHT22;24016;52.102;11.584;2024-02-28T11:16:48;11.50;99.90
38209;DHT22;24016;52.102;11.584;2024-02-28T11:19:21;11.40;99.90
38209;DHT22;24016;52.102;11.584;2024-02-28T11:21:53;11.80;99.90
38209;DHT22;24016;52.102;11.584;2024-02-28T11:24:29;12.10;99.90
38209;DHT22;24016;52.102;11.584;2024-02-28T11:26:56;12.40;99.90
38209;DHT22;24016;52.102;11.584;2024-02-28T11:29:28;12.40;99.90
38209;DHT22;24016;52.102;11.584;2024-02-28T11:31:54;11.60;99.90
38209;DHT22;24016;52.102;11.584;2024-02-28T11:34:20;11.40;99.90
38209;DHT22;24016;52.102;11.584;2024-02-28T11:36:50;11.80;99.90
38209;DHT22;24016;52.102;11.584;2024-02-28T11:39:16;12.30;99.90
38209;DHT22;24016;52.102;11.584;2024-02-28T11:41:43;12.10;99.90
38209;DHT22;24016;52.102;11.584;2024-02-28T11:44:16;12.20;99.90
38209;DHT22;24016;52.102;11.584;2024-02-28T11:46:46;12.20;99.90
38209;DHT22;24016;52.102;11.584;2024-02-28T11:49:15;11.60;99.90
38209;DHT22;24016;52.102;11.584;2024-02-28T11:51:44;11.50;99.90
38209;DHT22;24016;52.102;11.584;2024-02-28T11:54:10;11.70;99.90
38209;DHT22;24016;52.102;11.584;2024-02-28T11:56:40;12.00;99.90
38209;DHT22;24016;52.102;11.584;2024-02-28T11:59:05;12.10;99.90
38209;DHT22;24016;52.102;11.584;2024-02-28T12:01:33;12.40;99.90
38209;DHT22;24016;52.102;11.584;2024-02-28T12:03:59;12.70;99.90
38209;DHT22;24016;52.102;11.584;2024-02-28T12:06:24;12.60;99.90
38209;DHT22;24016;52.102;11.584;2024-02-28T12:08:50;12.40;99.90
38209;DHT22;24016;52.102;11.584;2024-02-28T12:11:16;12.10;99.90
38209;DHT22;24016;52.102;11.584;2024-02-28T12:13:41;12.10;99.90
38209;DHT22;24016;52.102;11.584;2024-02-28T12:16:08;11.50;99.90
38209;DHT22;24016;52.102;11.584;2024-02-28T12:18:34;12.10;99.90
38209;DHT22;24016;52.102;11.584;2024-02-28T12:21:00;12.50;99.90
38209;DHT22;24016;52.102;11.584;2024-02-28T12:23:26;12.90;99.90
38209;DHT22;24016;52.102;11.584;2024-02-28T12:25:51;13.20;99.90
38209;DHT22;24016;52.102;11.584;2024-02-28T12:28:16;13.60;99.90
38209;DHT22;24016;52.102;11.584;2024-02-28T12:30:43;14.00;99.90
38209;DHT22;24016;52.102;11.584;2024-02-28T12:33:10;14.10;99.90
38209;DHT22;24016;52.102;11.584;2024-02-28T12:35:39;13.70;99.90
38209;DHT22;24016;52.102;11.584;2024-02-28T12:38:05;13.30;99.90
38209;DHT22;24016;52.102;11.584;2024-02-28T12:40:31;13.30;99.90
38209;DHT22;24016;52.102;11.584;2024-02-28T12:42:56;12.80;99.90
38209;DHT22;24016;52.102;11.584;2024-02-28T12:45:22;12.10;99.90
38209;DHT22;24016;52.102;11.584;2024-02-28T12:47:47;11.80;99.90
38209;DHT22;24016;52.102;11.584;2024-02-28T12:50:13;11.20;99.90
38209;DHT22;24016;52.102;11.584;2024-02-28T12:52:39;10.80;99.90
38209;DHT22;24016;52.102;11.584;2024-02-28T12:55:04;10.50;99.90
38209;DHT22;24016;52.102;11.584;2024-02-28T12:57:30;10.10;99.90
38209;DHT22;24016;52.102;11.584;2024-02-28T12:59:56;10.30;99.90
38209;DHT22;24016;52.102;11.584;2024-02-28T13:02:21;11.00;99.90
38209;DHT22;24016;52.102;11.584;2024-02-28T13:04:47;11.10;99.90
38209;DHT22;24016;52.102;11.584;2024-02-28T13:07:13;11.20;99.90
38209;DHT22;24016;52.102;11.584;2024-02-28T13:09:38;11.10;99.90
38209;DHT22;24016;52.102;11.584;2024-02-28T13:12:04;10.90;99.90
38209;DHT22;24016;52.102;11.584;2024-02-28T13:14:30;10.70;99.90
38209;DHT22;24016;52.102;11.584;2024-02-28T13:16:56;10.70;99.90
38209;DHT22;24016;52.102;11.584;2024-02-28T13:19:23;10.10;99.90
38209;DHT22;24016;52.102;11.584;2024-02-28T13:21:49;10.10;99.90
38209;DHT22;24016;52.102;11.584;2024-02-28T13:24:14;10.10;99.90
38209;DHT22;24016;52.102;11.584;2024-02-28T13:26:41;10.00;99.90
38209;DHT22;24016;52.102;11.584;2024-02-28T13:29:07;10.00;99.90
38209;DHT22;24016;52.102;11.584;2024-02-28T13:31:33;9.60;99.90
38209;DHT22;24016;52.102;11.584;2024-02-28T13:34:00;9.40;99.90
38209;DHT22;24016;52.102;11.584;2024-02-28T13:36:26;9.30;99.90
38209;DHT22;24016;52.102;11.584;2024-02-28T13:38:51;9.10;99.90
38209;DHT22;24016;52.102;11.584;2024-02-28T13:41:17;8.90;99.90
38209;DHT22;24016;52.102;11.584;2024-02-28T13:43:42;8.60;99.90
38209;DHT22;24016;52.102;11.584;2024-02-28T13:46:08;8.80;99.90
38209;DHT22;24016;52.102;11.584;2024-02-28T13:48:35;8.60;99.90
38209;DHT22;24016;52.102;11.584;2024-02-28T13:51:01;8.30;99.90
38209;DHT22;24016;52.102;11.584;2024-02-28T13:53:29;8.20;99.90
38209;DHT22;24016;52.102;11.584;2024-02-28T13:55:55;8.30;99.90
38209;DHT22;24016;52.102;11.584;2024-02-28T13:58:20;8.30;99.90
38209;DHT22;24016;52.102;11.584;2024-02-28T14:00:46;8.30;99.90
38209;DHT22;24016;52.102;11.584;2024-02-28T14:03:12;8.10;99.90
38209;DHT22;24016;52.102;11.584;2024-02-28T14:05:38;8.00;99.90
38209;DHT22;24016;52.102;11.584;2024-02-28T14:08:04;7.70;99.90
38209;DHT22;24016;52.102;11.584;2024-02-28T14:10:30;7.60;99.90
38209;DHT22;24016;52.102;11.584;2024-02-28T14:12:56;7.60;99.90
38209;DHT22;24016;52.102;11.584;2024-02-28T14:15:22;7.70;99.90
38209;DHT22;24016;52.102;11.584;2024-02-28T14:17:50;7.70;99.90
38209;DHT22;24016;52.102;11.584;2024-02-28T14:20:17;7.70;99.90
38209;DHT22;24016;52.102;11.584;2024-02-28T14:22:43;7.50;99.90
38209;DHT22;24016;52.102;11.584;2024-02-28T14:25:16;7.50;99.90
38209;DHT22;24016;52.102;11.584;2024-02-28T14:27:44;7.50;99.90
38209;DHT22;24016;52.102;11.584;2024-02-28T14:30:10;7.30;99.90
38209;DHT22;24016;52.102;11.584;2024-02-28T14:32:36;7.20;99.90
38209;DHT22;24016;52.102;11.584;2024-02-28T14:35:06;7.30;99.90
38209;DHT22;24016;52.102;11.584;2024-02-28T14:37:32;7.30;99.90
38209;DHT22;24016;52.102;11.584;2024-02-28T14:39:59;7.30;99.90
38209;DHT22;24016;52.102;11.584;2024-02-28T14:42:26;7.20;99.90
38209;DHT22;24016;52.102;11.584;2024-02-28T14:44:51;7.00;99.90
38209;DHT22;24016;52.102;11.584;2024-02-28T14:47:19;6.90;99.90
38209;DHT22;24016;52.102;11.584;2024-02-28T14:49:45;6.80;99.90
38209;DHT22;24016;52.102;11.584;2024-02-28T14:52:10;6.90;99.90
38209;DHT22;24016;52.102;11.584;2024-02-28T14:54:37;7.10;99.90
38209;DHT22;24016;52.102;11.584;2024-02-28T14:57:04;7.10;99.90
38209;DHT22;24016;52.102;11.584;2024-02-28T14:59:29;7.10;99.90
38209;DHT22;24016;52.102;11.584;2024-02-28T15:01:55;7.10;99.90
38209;DHT22;24016;52.102;11.584;2024-02-28T15:04:21;7.10;99.90
38209;DHT22;24016;52.102;11.584;2024-02-28T15:06:46;7.00;99.90
38209;DHT22;24016;52.102;11.584;2024-02-28T15:09:12;6.80;99.90
38209;DHT22;24016;52.102;11.584;2024-02-28T15:11:38;6.80;99.90
38209;DHT22;24016;52.102;11.584;2024-02-28T15:14:04;6.70;99.90
38209;DHT22;24016;52.102;11.584;2024-02-28T15:16:29;6.50;99.90
38209;DHT22;24016;52.102;11.584;2024-02-28T15:18:55;6.40;99.90
38209;DHT22;24016;52.102;11.584;2024-02-28T15:21:20;6.50;99.90
38209;DHT22;24016;52.102;11.584;2024-02-28T15:23:46;6.40;99.90
38209;DHT22;24016;52.102;11.584;2024-02-28T15:26:14;6.30;99.90